createdAt,value
2023-02-05T00:00:27.987Z,62.91
2023-02-05T00:02:54.686Z,62.81
2023-02-05T00:05:21.519Z,59.75
2023-02-05T00:07:49.704Z,62.30
2023-02-05T00:10:16.928Z,64.37
2023-02-05T00:12:44.065Z,59.94
2023-02-05T00:15:11.226Z,59.88
2023-02-05T00:17:38.085Z,62.46
2023-02-05T00:20:05.883Z,65.47
2023-02-05T00:22:33.142Z,69.70
2023-02-05T00:25:01.315Z,65.81
2023-02-05T00:27:28.085Z,67.40
2023-02-05T00:29:54.917Z,62.96
2023-02-05T00:32:21.749Z,62.64
2023-02-05T00:34:48.512Z,59.75
2023-02-05T00:37:15.347Z,61.67
2023-02-05T00:39:42.175Z,62.39
2023-02-05T00:42:10.298Z,58.52
2023-02-05T00:44:37.113Z,58.02
2023-02-05T00:47:03.874Z,57.63
2023-02-05T00:49:30.655Z,59.14
2023-02-05T00:51:57.421Z,56.28
2023-02-05T00:54:24.334Z,57.67
2023-02-05T00:56:51.097Z,66.23
2023-02-05T00:59:19.233Z,66.98
2023-02-05T01:01:46.029Z,59.56
2023-02-05T01:04:12.939Z,61.37
2023-02-05T01:06:39.798Z,63.87
2023-02-05T01:09:06.645Z,62.39
2023-02-05T01:11:33.518Z,63.59
2023-02-05T01:14:00.340Z,62.96
2023-02-05T01:16:28.657Z,62.44
2023-02-05T01:18:55.423Z,60.84
2023-02-05T01:21:22.473Z,63.13
2023-02-05T01:23:49.161Z,66.41
2023-02-05T01:26:15.978Z,67.48
2023-02-05T01:28:42.815Z,66.16
2023-02-05T01:31:09.675Z,63.56
2023-02-05T01:33:37.878Z,65.63
2023-02-05T01:36:05.400Z,63.67
2023-02-05T01:38:32.140Z,62.43
2023-02-05T01:40:58.856Z,63.54
2023-02-05T01:43:25.725Z,61.21
2023-02-05T01:46:28.295Z,63.16
2023-02-05T01:48:59.123Z,63.86
2023-02-05T01:51:29.077Z,65.64
2023-02-05T01:53:56.239Z,67.00
2023-02-05T01:56:26.308Z,69.11
2023-02-05T01:58:59.420Z,67.49
2023-02-05T02:01:27.579Z,71.64
2023-02-05T02:03:58.207Z,73.65
2023-02-05T02:06:25.027Z,67.89
2023-02-05T02:08:52.449Z,69.42
2023-02-05T02:11:22.540Z,66.75
2023-02-05T02:13:52.186Z,65.36
2023-02-05T02:16:19.649Z,70.64
2023-02-05T02:18:46.984Z,68.81
2023-02-05T02:21:36.385Z,69.17
2023-02-05T02:24:17.342Z,69.14
2023-02-05T02:27:00.044Z,68.21
2023-02-05T02:29:35.488Z,67.35
2023-02-05T02:32:11.782Z,64.73
2023-02-05T02:34:43.921Z,64.96
2023-02-05T02:37:14.796Z,68.02
2023-02-05T02:39:44.556Z,69.49
2023-02-05T02:42:15.800Z,69.06
2023-02-05T02:44:49.948Z,67.65
2023-02-05T02:47:20.344Z,67.96
2023-02-05T02:49:52.759Z,68.55
2023-02-05T02:52:23.546Z,72.15
2023-02-05T02:54:54.094Z,72.30
2023-02-05T02:57:23.676Z,69.95
2023-02-05T02:59:55.026Z,72.14
2023-02-05T03:02:22.704Z,71.60
2023-02-05T03:04:55.163Z,70.24
2023-02-05T03:07:26.168Z,71.19
2023-02-05T03:09:57.341Z,74.53
2023-02-05T03:12:24.419Z,69.61
2023-02-05T03:14:53.854Z,70.62
2023-02-05T03:17:21.654Z,67.64
2023-02-05T03:19:53.259Z,68.27
2023-02-05T03:22:20.276Z,68.45
2023-02-05T03:24:47.321Z,67.88
2023-02-05T03:27:14.720Z,67.61
2023-02-05T03:29:42.290Z,66.22
2023-02-05T03:32:22.923Z,64.67
2023-02-05T03:35:01.002Z,66.35
2023-02-05T03:37:37.828Z,66.52
2023-02-05T03:40:12.727Z,64.80
2023-02-05T03:42:46.617Z,66.86
2023-02-05T03:45:23.423Z,68.85
2023-02-05T03:48:05.552Z,66.70
2023-02-05T03:50:40.083Z,68.28
2023-02-05T03:53:14.366Z,67.49
2023-02-05T03:55:45.143Z,67.00
2023-02-05T03:58:17.593Z,67.52
2023-02-05T04:00:45.075Z,66.20
2023-02-05T04:03:13.575Z,69.12
2023-02-05T04:05:40.368Z,67.58
2023-02-05T04:08:07.257Z,70.66
2023-02-05T04:10:34.124Z,68.16
2023-02-05T04:13:00.874Z,69.06
2023-02-05T04:15:27.679Z,69.65
2023-02-05T04:17:54.441Z,68.19
2023-02-05T04:20:22.698Z,70.06
2023-02-05T04:22:49.561Z,66.90
2023-02-05T04:25:16.555Z,66.91
2023-02-05T04:27:43.308Z,68.63
2023-02-05T04:30:12.364Z,70.19
2023-02-05T04:32:39.079Z,70.67
2023-02-05T04:35:06.365Z,70.56
2023-02-05T04:37:34.565Z,69.33
2023-02-05T04:40:01.308Z,68.78
2023-02-05T04:42:28.035Z,70.83
2023-02-05T04:44:54.796Z,71.49
2023-02-05T04:47:21.913Z,70.26
2023-02-05T04:49:48.676Z,72.73
2023-02-05T04:52:15.404Z,76.74
2023-02-05T04:54:43.503Z,77.20
2023-02-05T04:57:10.206Z,71.41
2023-02-05T04:59:37.201Z,69.25
2023-02-05T05:02:04.084Z,69.65
2023-02-05T05:04:30.853Z,71.72
2023-02-05T05:06:57.618Z,72.88
2023-02-05T05:09:24.570Z,69.56
2023-02-05T05:11:52.868Z,70.71
2023-02-05T05:14:19.625Z,69.41
2023-02-05T05:16:46.654Z,69.00
2023-02-05T05:19:13.477Z,68.94
2023-02-05T05:21:40.259Z,69.71
2023-02-05T05:24:07.449Z,72.01
2023-02-05T05:26:34.505Z,72.84
2023-02-05T05:29:02.613Z,77.38
2023-02-05T05:31:29.421Z,74.06
2023-02-05T05:33:56.152Z,74.78
2023-02-05T05:36:22.916Z,71.50
2023-02-05T05:38:49.646Z,69.37
2023-02-05T05:41:20.470Z,74.35
2023-02-05T05:43:47.678Z,75.44
2023-02-05T05:46:20.250Z,71.75
2023-02-05T05:48:47.172Z,70.07
2023-02-05T05:51:13.882Z,69.20
2023-02-05T05:53:40.633Z,71.53
2023-02-05T05:56:07.410Z,74.22
2023-02-05T05:58:34.217Z,71.73
2023-02-05T06:01:01.401Z,75.47
2023-02-05T06:03:29.500Z,74.47
2023-02-05T06:05:56.282Z,72.30
2023-02-05T06:08:23.010Z,71.53
2023-02-05T06:10:49.745Z,71.41
2023-02-05T06:13:16.596Z,69.99
2023-02-05T06:15:43.363Z,72.70
2023-02-05T06:18:10.254Z,73.26
2023-02-05T06:20:38.584Z,73.48
2023-02-05T06:23:06.588Z,71.16
2023-02-05T06:25:33.604Z,69.80
2023-02-05T06:28:00.688Z,72.13
2023-02-05T06:30:27.496Z,71.60
2023-02-05T06:32:54.279Z,70.69
2023-02-05T06:35:21.033Z,69.16
2023-02-05T06:37:49.125Z,69.35
2023-02-05T06:40:16.861Z,67.75
2023-02-05T06:42:43.747Z,70.57
2023-02-05T06:45:11.134Z,71.97
2023-02-05T06:47:38.036Z,73.75
2023-02-05T06:50:05.673Z,71.79
2023-02-05T06:52:32.512Z,72.95
2023-02-05T06:55:00.619Z,70.42
2023-02-05T06:57:27.431Z,70.61
2023-02-05T06:59:54.187Z,73.12
2023-02-05T07:02:20.957Z,72.05
2023-02-05T07:04:47.725Z,70.38
2023-02-05T07:07:14.466Z,70.52
2023-02-05T07:09:41.218Z,68.92
2023-02-05T07:12:09.573Z,70.10
2023-02-05T07:14:37.390Z,71.60
2023-02-05T07:17:04.304Z,70.96
2023-02-05T07:19:31.138Z,69.08
2023-02-05T07:21:57.885Z,71.52
2023-02-05T07:24:24.699Z,70.81
2023-02-05T07:26:51.667Z,68.10
2023-02-05T07:29:19.809Z,67.62
2023-02-05T07:31:46.604Z,70.00
2023-02-05T07:34:13.337Z,71.00
2023-02-05T07:36:40.126Z,71.47
2023-02-05T07:39:06.954Z,71.77
2023-02-05T07:41:33.697Z,71.04
2023-02-05T07:44:00.584Z,71.16
2023-02-05T07:46:28.876Z,71.80
2023-02-05T07:48:55.694Z,72.22
2023-02-05T07:51:24.076Z,72.87
2023-02-05T07:53:51.496Z,74.01
2023-02-05T07:56:18.699Z,71.06
2023-02-05T07:58:45.415Z,68.42
2023-02-05T08:01:12.283Z,72.22
2023-02-05T08:03:40.427Z,67.45
2023-02-05T08:06:09.377Z,65.88
2023-02-05T08:08:37.131Z,65.29
2023-02-05T08:11:06.038Z,65.03
2023-02-05T08:13:32.868Z,67.08
2023-02-05T08:16:04.355Z,63.49
2023-02-05T08:18:31.222Z,62.90
2023-02-05T08:21:00.161Z,62.81
2023-02-05T08:23:27.036Z,63.16
2023-02-05T08:25:54.234Z,62.72
2023-02-05T08:28:21.565Z,61.35
2023-02-05T08:30:48.459Z,60.96
2023-02-05T08:33:15.484Z,57.98
2023-02-05T08:35:43.502Z,57.57
2023-02-05T08:38:11.641Z,57.60
2023-02-05T08:40:38.504Z,57.08
2023-02-05T08:43:05.250Z,57.17
2023-02-05T08:45:32.640Z,54.85
2023-02-05T08:48:06.837Z,54.76
2023-02-05T08:50:33.603Z,52.74
2023-02-05T08:53:00.366Z,53.97
2023-02-05T08:55:28.722Z,52.09
2023-02-05T08:57:55.530Z,52.58
2023-02-05T09:00:22.611Z,51.01
2023-02-05T09:02:49.413Z,51.25
2023-02-05T09:05:16.486Z,51.31
2023-02-05T09:07:43.331Z,51.77
2023-02-05T09:10:12.263Z,51.35
2023-02-05T09:12:40.389Z,52.42
2023-02-05T09:15:10.572Z,51.16
2023-02-05T09:17:37.589Z,52.83
2023-02-05T09:20:04.829Z,52.80
2023-02-05T09:22:31.783Z,51.02
2023-02-05T09:24:58.525Z,51.25
2023-02-05T09:27:25.376Z,49.84
2023-02-05T09:29:53.492Z,48.90
2023-02-05T09:32:20.325Z,47.99
2023-02-05T09:34:47.040Z,47.46
2023-02-05T09:37:15.040Z,48.08
2023-02-05T09:40:18.897Z,47.65
2023-02-05T09:42:36.944Z,48.74
2023-02-05T09:45:15.233Z,49.61
2023-02-05T09:47:48.511Z,50.25
2023-02-05T09:50:21.083Z,49.00
2023-02-05T09:52:49.856Z,48.92
2023-02-05T09:55:22.517Z,49.06
2023-02-05T09:57:51.197Z,48.40
2023-02-05T10:00:23.899Z,49.80
2023-02-05T10:02:58.239Z,47.96
2023-02-05T10:05:29.141Z,49.14
2023-02-05T10:08:03.996Z,49.13
2023-02-05T10:10:40.008Z,47.59
2023-02-05T10:13:27.624Z,48.72
2023-02-05T10:16:22.444Z,46.73
2023-02-05T10:19:02.630Z,45.46
2023-02-05T10:21:45.514Z,44.73
2023-02-05T10:24:28.571Z,44.54
2023-02-05T10:27:03.384Z,47.05
2023-02-05T10:29:40.679Z,45.76
2023-02-05T10:32:19.832Z,44.47
2023-02-05T10:34:55.390Z,45.98
2023-02-05T10:37:36.569Z,46.35
2023-02-05T10:40:12.736Z,44.54
2023-02-05T10:42:44.792Z,42.21
2023-02-05T10:45:18.781Z,43.84
2023-02-05T10:48:09.987Z,45.59
2023-02-05T10:50:49.416Z,42.26
2023-02-05T10:53:19.525Z,41.23
2023-02-05T10:55:46.370Z,41.34
2023-02-05T10:58:36.836Z,43.17
2023-02-05T11:01:05.311Z,42.90
2023-02-05T11:03:33.957Z,42.57
2023-02-05T11:06:02.789Z,41.40
2023-02-05T11:08:36.010Z,43.55
2023-02-05T11:11:04.192Z,42.61
2023-02-05T11:13:31.456Z,42.90
2023-02-05T11:16:02.181Z,42.54
2023-02-05T11:18:32.842Z,41.89
2023-02-05T11:21:03.544Z,41.36
2023-02-05T11:23:30.784Z,42.28
2023-02-05T11:25:59.299Z,41.32
2023-02-05T11:28:28.573Z,42.71
2023-02-05T11:30:56.245Z,40.91
2023-02-05T11:33:32.047Z,41.46
2023-02-05T11:36:03.114Z,40.53
2023-02-05T11:38:42.708Z,40.41
2023-02-05T11:41:10.684Z,42.23
2023-02-05T11:43:40.466Z,41.21
2023-02-05T11:46:09.733Z,39.93
2023-02-05T11:48:41.902Z,41.68
2023-02-05T11:51:13.669Z,40.50
2023-02-05T11:53:50.491Z,41.58
2023-02-05T11:56:23.275Z,42.32
2023-02-05T11:58:59.329Z,42.07
2023-02-05T12:01:26.694Z,41.46
2023-02-05T12:04:01.336Z,39.12
2023-02-05T12:06:35.563Z,40.92
2023-02-05T12:09:02.309Z,40.19
2023-02-05T12:11:43.982Z,39.58
2023-02-05T12:14:16.978Z,39.10
2023-02-05T12:16:50.302Z,39.74
2023-02-05T12:19:20.415Z,39.12
2023-02-05T12:21:58.075Z,40.10
2023-02-05T12:24:45.994Z,39.78
2023-02-05T12:27:34.124Z,39.06
2023-02-05T12:30:23.378Z,41.72
2023-02-05T12:33:00.819Z,39.38
2023-02-05T12:35:40.744Z,39.75
2023-02-05T12:38:32.164Z,40.86
2023-02-05T12:41:08.819Z,40.62
2023-02-05T12:43:38.985Z,39.97
2023-02-05T12:46:20.971Z,41.69
2023-02-05T12:49:07.790Z,41.71
2023-02-05T12:51:56.869Z,41.46
2023-02-05T12:54:39.247Z,42.26
2023-02-05T12:57:11.163Z,41.72
2023-02-05T12:59:42.329Z,43.17
2023-02-05T13:02:22.919Z,41.86
2023-02-05T13:04:54.529Z,42.74
2023-02-05T13:07:29.843Z,41.52
2023-02-05T13:10:01.630Z,39.43
2023-02-05T13:12:34.469Z,37.99
2023-02-05T13:15:13.523Z,37.94
2023-02-05T13:17:45.518Z,39.69
2023-02-05T13:20:21.750Z,40.45
2023-02-05T13:22:54.748Z,38.75
2023-02-05T13:25:37.821Z,39.70
2023-02-05T13:28:32.880Z,39.02
2023-02-05T13:31:02.659Z,41.09
2023-02-05T13:33:30.121Z,39.71
2023-02-05T13:36:12.380Z,40.26
2023-02-05T13:38:55.989Z,39.67
2023-02-05T13:41:58.882Z,39.98
2023-02-05T13:44:50.867Z,39.52
2023-02-05T13:47:46.688Z,41.03
2023-02-05T13:50:38.811Z,38.82
2023-02-05T13:53:39.004Z,41.53
2023-02-05T13:56:32.588Z,41.79
2023-02-05T13:59:03.785Z,41.57
2023-02-05T14:01:42.589Z,42.08
2023-02-05T14:04:23.057Z,42.81
2023-02-05T14:06:58.046Z,44.66
2023-02-05T14:09:33.696Z,45.35
2023-02-05T14:12:04.175Z,46.87
2023-02-05T14:14:34.887Z,45.56
2023-02-05T14:17:23.145Z,41.33
2023-02-05T14:19:53.276Z,41.44
2023-02-05T14:22:35.119Z,43.86
2023-02-05T14:25:01.919Z,46.67
2023-02-05T14:27:48.998Z,42.99
2023-02-05T14:30:52.558Z,42.32
2023-02-05T14:33:33.944Z,45.61
2023-02-05T14:36:31.544Z,49.21
2023-02-05T14:39:01.722Z,48.52
2023-02-05T14:41:30.953Z,50.33
2023-02-05T14:44:01.956Z,51.38
2023-02-05T14:46:34.680Z,50.31
2023-02-05T14:49:03.787Z,50.12
2023-02-05T14:51:37.100Z,49.95
2023-02-05T14:54:06.872Z,51.15
2023-02-05T14:56:40.364Z,51.67
2023-02-05T14:59:21.853Z,53.04
2023-02-05T15:01:50.875Z,51.29
2023-02-05T15:04:28.654Z,50.39
2023-02-05T15:06:59.509Z,54.78
2023-02-05T15:09:37.420Z,58.31
2023-02-05T15:12:30.160Z,58.27
2023-02-05T15:14:57.974Z,60.61
2023-02-05T15:17:50.940Z,59.71
2023-02-05T15:20:32.020Z,60.35
2023-02-05T15:23:13.230Z,58.87
2023-02-05T15:25:43.983Z,58.90
2023-02-05T15:28:24.326Z,59.26
2023-02-05T15:31:04.410Z,60.62
2023-02-05T15:33:42.439Z,59.66
2023-02-05T15:36:19.148Z,56.49
2023-02-05T15:38:52.499Z,58.46
2023-02-05T15:41:21.536Z,60.03
2023-02-05T15:43:58.764Z,55.19
2023-02-05T15:46:26.570Z,57.45
2023-02-05T15:48:55.826Z,57.67
2023-02-05T15:51:28.528Z,61.75
2023-02-05T15:53:57.610Z,62.84
2023-02-05T15:56:27.970Z,52.75
2023-02-05T15:58:59.691Z,54.04
2023-02-05T16:01:29.610Z,59.37
2023-02-05T16:03:58.260Z,51.71
2023-02-05T16:06:26.777Z,56.61
2023-02-05T16:08:54.030Z,57.18
2023-02-05T16:11:31.522Z,60.03
2023-02-05T16:14:11.288Z,63.30
2023-02-05T16:16:42.234Z,61.24
2023-02-05T16:19:19.686Z,53.83
2023-02-05T16:21:51.453Z,60.34
2023-02-05T16:24:27.100Z,63.05
2023-02-05T16:26:59.775Z,63.69
2023-02-05T16:29:46.123Z,62.28
2023-02-05T16:32:21.196Z,61.90
2023-02-05T16:34:49.787Z,55.39
2023-02-05T16:37:18.731Z,59.97
2023-02-05T16:39:50.231Z,62.31
2023-02-05T16:42:31.148Z,62.07
2023-02-05T16:45:13.945Z,63.87
2023-02-05T16:47:40.739Z,59.56
2023-02-05T16:50:35.623Z,59.76
2023-02-05T16:53:02.780Z,63.18
2023-02-05T16:55:48.363Z,63.27
2023-02-05T16:58:19.457Z,68.66
2023-02-05T17:00:55.803Z,64.90
2023-02-05T17:03:23.170Z,63.50
2023-02-05T17:05:56.709Z,63.45
2023-02-05T17:08:29.967Z,63.87
2023-02-05T17:10:59.041Z,66.95
2023-02-05T17:13:29.357Z,64.89
2023-02-05T17:15:56.314Z,68.67
2023-02-05T17:18:27.689Z,64.06
2023-02-05T17:21:30.771Z,60.54
2023-02-05T17:23:58.482Z,63.17
2023-02-05T17:26:27.612Z,66.72
2023-02-05T17:28:56.596Z,65.79
2023-02-05T17:31:24.891Z,58.86
2023-02-05T17:33:52.902Z,58.28
2023-02-05T17:36:20.091Z,58.51
2023-02-05T17:38:49.005Z,63.05
2023-02-05T17:41:17.677Z,67.30
2023-02-05T17:43:44.458Z,58.37
2023-02-05T17:46:13.300Z,67.79
2023-02-05T17:48:40.351Z,66.53
2023-02-05T17:51:07.177Z,68.47
2023-02-05T17:53:34.038Z,69.37
2023-02-05T17:56:02.657Z,69.73
2023-02-05T17:58:29.860Z,69.90
2023-02-05T18:00:56.631Z,65.56
2023-02-05T18:03:23.450Z,67.19
2023-02-05T18:05:50.160Z,68.11
2023-02-05T18:08:17.002Z,61.87
2023-02-05T18:10:43.796Z,65.47
2023-02-05T18:13:12.074Z,70.90
2023-02-05T18:15:38.901Z,70.08
2023-02-05T18:18:05.709Z,69.04
2023-02-05T18:20:32.548Z,70.53
2023-02-05T18:22:59.344Z,70.64
2023-02-05T18:25:26.286Z,72.84
2023-02-05T18:27:53.093Z,61.53
2023-02-05T18:30:21.837Z,62.13
2023-02-05T18:32:48.636Z,66.22
2023-02-05T18:35:15.674Z,66.86
2023-02-05T18:37:42.931Z,59.76
2023-02-05T18:40:11.419Z,58.46
2023-02-05T18:42:38.189Z,57.94
2023-02-05T18:45:05.627Z,56.98
2023-02-05T18:47:33.737Z,66.64
2023-02-05T18:50:00.545Z,63.71
2023-02-05T18:52:27.258Z,66.35
2023-02-05T18:54:53.990Z,68.27
2023-02-05T18:57:20.775Z,70.25
2023-02-05T18:59:47.633Z,67.34
2023-02-05T19:02:14.741Z,72.44
2023-02-05T19:04:43.188Z,70.44
2023-02-05T19:07:10.341Z,64.98
2023-02-05T19:09:37.381Z,65.55
2023-02-05T19:12:04.659Z,67.75
2023-02-05T19:14:31.399Z,67.79
2023-02-05T19:16:58.410Z,70.71
2023-02-05T19:19:26.009Z,74.06
2023-02-05T19:21:56.030Z,76.70
2023-02-05T19:24:23.319Z,71.64
2023-02-05T19:26:50.373Z,68.24
2023-02-05T19:29:19.161Z,67.94
2023-02-05T19:31:46.632Z,65.28
2023-02-05T19:34:13.506Z,63.15
2023-02-05T19:36:40.831Z,67.19
2023-02-05T19:39:12.131Z,68.08
2023-02-05T19:41:38.893Z,67.22
2023-02-05T19:44:08.279Z,68.55
2023-02-05T19:46:37.592Z,67.73
2023-02-05T19:49:06.511Z,64.20
2023-02-05T19:51:33.671Z,62.85
2023-02-05T19:54:01.192Z,63.37
2023-02-05T19:56:30.156Z,64.78
2023-02-05T19:58:56.976Z,67.61
2023-02-05T20:01:26.121Z,66.23
2023-02-05T20:03:55.338Z,67.74
2023-02-05T20:06:28.478Z,70.42
2023-02-05T20:08:56.601Z,72.63
2023-02-05T20:11:24.278Z,73.82
2023-02-05T20:13:52.440Z,72.83
2023-02-05T20:16:21.842Z,73.04
2023-02-05T20:18:53.883Z,72.89
2023-02-05T20:21:21.326Z,72.74
2023-02-05T20:23:49.016Z,66.69
2023-02-05T20:26:16.730Z,66.07
2023-02-05T20:28:43.543Z,67.56
2023-02-05T20:31:14.181Z,69.10
2023-02-05T20:33:41.336Z,67.43
2023-02-05T20:36:09.707Z,69.30
2023-02-05T20:38:36.801Z,77.63
2023-02-05T20:41:11.569Z,73.02
2023-02-05T20:43:38.408Z,67.25
2023-02-05T20:46:06.341Z,70.58
2023-02-05T20:48:34.489Z,70.22
2023-02-05T20:51:05.959Z,69.29
2023-02-05T20:53:32.771Z,69.90
2023-02-05T20:56:03.247Z,73.22
2023-02-05T20:58:30.887Z,72.48
2023-02-05T21:01:05.292Z,74.48
2023-02-05T21:03:34.169Z,72.87
2023-02-05T21:06:01.198Z,68.59
2023-02-05T21:08:28.376Z,68.81
2023-02-05T21:10:55.488Z,72.06
2023-02-05T21:13:22.289Z,68.94
2023-02-05T21:15:53.386Z,72.09
2023-02-05T21:18:20.653Z,71.42
2023-02-05T21:20:49.154Z,76.08
2023-02-05T21:23:16.614Z,74.68
2023-02-05T21:25:43.986Z,73.74
2023-02-05T21:28:11.162Z,75.70
2023-02-05T21:30:38.573Z,75.58
2023-02-05T21:33:05.701Z,74.12
2023-02-05T21:35:32.588Z,76.48
2023-02-05T21:38:00.686Z,76.05
2023-02-05T21:40:27.541Z,76.77
2023-02-05T21:42:54.317Z,73.19
2023-02-05T21:45:21.035Z,74.64
2023-02-05T21:47:47.805Z,77.73
2023-02-05T21:50:14.849Z,78.31
2023-02-05T21:52:41.712Z,73.40
2023-02-05T21:55:09.951Z,70.47
2023-02-05T21:57:36.695Z,70.81
2023-02-05T22:00:04.514Z,70.76
2023-02-05T22:02:31.338Z,74.56
2023-02-05T22:04:58.074Z,72.25
2023-02-05T22:07:25.144Z,72.62
2023-02-05T22:09:51.875Z,69.34
2023-02-05T22:12:20.058Z,67.78
2023-02-05T22:14:47.774Z,71.62
2023-02-05T22:17:14.556Z,71.35
2023-02-05T22:19:41.375Z,73.18
2023-02-05T22:22:08.090Z,72.35
2023-02-05T22:24:34.873Z,70.62
2023-02-05T22:27:01.916Z,73.46
2023-02-05T22:29:30.015Z,75.13
2023-02-05T22:31:56.931Z,72.21
2023-02-05T22:34:23.727Z,73.90
2023-02-05T22:36:50.531Z,75.96
2023-02-05T22:39:17.260Z,75.43
2023-02-05T22:41:44.768Z,70.33
2023-02-05T22:44:12.163Z,69.84
2023-02-05T22:46:43.201Z,71.37
2023-02-05T22:49:13.689Z,68.88
2023-02-05T22:51:40.782Z,66.98
2023-02-05T22:54:10.077Z,70.58
2023-02-05T22:56:37.480Z,67.02
2023-02-05T22:59:04.361Z,68.73
2023-02-05T23:01:32.569Z,70.69
2023-02-05T23:04:02.398Z,76.28
2023-02-05T23:06:31.021Z,69.59
2023-02-05T23:08:59.939Z,70.65
2023-02-05T23:11:28.634Z,72.51
2023-02-05T23:13:57.018Z,71.38
2023-02-05T23:16:25.531Z,71.63
2023-02-05T23:18:55.213Z,74.13
2023-02-05T23:21:25.832Z,75.71
2023-02-05T23:23:53.045Z,72.32
2023-02-05T23:26:22.936Z,68.40
2023-02-05T23:28:51.194Z,75.86
2023-02-05T23:31:19.212Z,72.08
2023-02-05T23:33:46.139Z,71.13
2023-02-05T23:36:13.283Z,71.41
2023-02-05T23:38:41.504Z,70.94
2023-02-05T23:41:08.731Z,68.80
2023-02-05T23:43:36.774Z,70.45
2023-02-05T23:46:04.279Z,71.65
2023-02-05T23:48:31.261Z,70.34
2023-02-05T23:50:58.262Z,69.94
2023-02-05T23:53:25.593Z,68.20
2023-02-05T23:55:54.226Z,71.01
2023-02-05T23:58:22.439Z,70.98
